David Evans — WDC6547 — position and weather

sailwx.info

Track history (hours):
 
Tides and Currents Weather Stations Pressure Air Temp Water Temp Dewpoint Dewpoint Depression Visibility Wind Speed Wind Dir Waves Ship Positions

David Evans

Owner: American Commercial Lines LLC, Jeffersonville, IN. More information available from US FCC via Universal Licensing System and Coast Guard Vessel Documentation Center.

Last reported at 2017-Sep-11 14:14 UTC. Time now 2017-Sep-25 06:34 UTC.
Position N 32°44' W 091°04'.
Warning: this ship's position is 13 days out of date.

Length 55 m; draft 2.7 m.

Type: Towing. MMSI: 367057750.

Date/timePositionNaut miles runAvg speedWind from/ knotsBaromVisibWave heightAir tempDewpointWater temp
2017-Sep-11 14:14N 32°44' W 091°04'0 1.5
2017-Sep-11 14:00N 32°44' W 091°04'2 3.1
2017-Sep-11 13:19N 32°42' W 091°04'1 1.6
2017-Sep-11 12:23N 32°41' W 091°05'2 4.7
2017-Sep-11 12:00N 32°40' W 091°07'2 4.0
2017-Sep-11 11:30N 32°39' W 091°09'1 1.4
2017-Sep-11 11:00N 32°38' W 091°09'0 0.1
2017-Sep-11 10:30N 32°38' W 091°09'2 3.4
2017-Sep-11 10:00N 32°37' W 091°09'2 4.0
2017-Sep-11 09:30N 32°35' W 091°07'2 3.8
2017-Sep-11 09:00N 32°33' W 091°06'2 3.6
2017-Sep-11 08:30N 32°32' W 091°06'2 4.1
2017-Sep-11 08:00N 32°30' W 091°07'2 4.0
2017-Sep-11 07:30N 32°28' W 091°06'2 4.0
2017-Sep-11 07:00N 32°27' W 091°04'2 4.1
2017-Sep-11 06:30N 32°26' W 091°02'2 4.3
2017-Sep-11 06:00N 32°25' W 090°60'2 3.6
2017-Sep-11 05:30N 32°23' W 090°60'2 3.3
2017-Sep-11 05:00N 32°21' W 091°00'2 4.6
2017-Sep-11 04:30N 32°21' W 090°57'2 4.2
2017-Sep-11 04:00N 32°21' W 090°55'2 3.9
2017-Sep-11 03:30N 32°19' W 090°54'1 2.3
2017-Sep-11 03:00N 32°18' W 090°55'0 0.5
2017-Sep-11 02:30N 32°18' W 090°56'1 2.7
2017-Sep-11 02:00N 32°17' W 090°57'2 4.4
2017-Sep-11 01:30N 32°15' W 090°59'2 3.5
2017-Sep-11 01:00N 32°13' W 090°59'2 4.7
2017-Sep-11 00:30N 32°11' W 090°60'2 4.5
2017-Sep-11 00:00N 32°09' W 091°00'3 3.8
2017-Sep-10 23:19N 32°07' W 091°03'3 4.7
2017-Sep-10 22:41N 32°08' W 091°06'1 4.7
2017-Sep-10 22:30N 32°07' W 091°07'5 1.9
2017-Sep-10 20:00N 32°03' W 091°03'  
2017-Sep-07 10:10N 31°41' W 091°24'1 7.3
2017-Sep-07 10:00N 31°42' W 091°24'5 7.8
2017-Sep-07 09:21N 31°47' W 091°22'13 6.6
2017-Sep-07 07:21N 31°57' W 091°11'3 6.7
2017-Sep-07 06:52N 31°59' W 091°08'3 7.3
2017-Sep-07 06:30N 31°60' W 091°05'4 7.6
2017-Sep-07 05:59N 32°03' W 091°03'4 8.2
2017-Sep-07 05:30N 32°07' W 091°06'1 2.7
2017-Sep-07 05:00N 32°08' W 091°06'3 6.6
2017-Sep-07 04:30N 32°07' W 091°02'3 6.9
2017-Sep-07 04:00N 32°10' W 091°00'4 7.8
2017-Sep-07 03:30N 32°14' W 090°59'4 7.4
2017-Sep-07 03:00N 32°17' W 090°57'4 7.4
2017-Sep-07 02:30N 32°20' W 090°54'3 6.7
2017-Sep-07 02:00N 32°21' W 090°58'3 5.4
2017-Sep-07 01:30N 32°23' W 090°60'3 6.4
2017-Sep-07 01:00N 32°26' W 091°02'4 7.5
2017-Sep-07 00:30N 32°27' W 091°06'6 7.1
2017-Sep-06 23:42N 32°33' W 091°06'1 7.6
2017-Sep-06 23:30N 32°34' W 091°07'6 6.3
2017-Sep-06 22:35N 32°40' W 091°07'  
Track history (hours):
 
Tides and Currents Weather Stations Pressure Air Temp Water Temp Dewpoint Dewpoint Depression Visibility Wind Speed Wind Dir Waves Ship Positions

David Evans

Owner: American Commercial Lines LLC, Jeffersonville, IN. More information available from US FCC via Universal Licensing System and Coast Guard Vessel Documentation Center.

Last reported at 2017-Sep-11 14:14 UTC. Time now 2017-Sep-25 06:34 UTC.
Position N 32°44' W 091°04'.
Warning: this ship's position is 13 days out of date.

Length 55 m; draft 2.7 m.

Type: Towing. MMSI: 367057750.

Date/timePositionNaut miles runAvg speedWind from/ knotsBaromVisibWave heightAir tempDewpointWater temp
2017-Sep-11 14:14N 32°44' W 091°04'0 1.5
2017-Sep-11 14:00N 32°44' W 091°04'2 3.1
2017-Sep-11 13:19N 32°42' W 091°04'1 1.6
2017-Sep-11 12:23N 32°41' W 091°05'2 4.7
2017-Sep-11 12:00N 32°40' W 091°07'2 4.0
2017-Sep-11 11:30N 32°39' W 091°09'1 1.4
2017-Sep-11 11:00N 32°38' W 091°09'0 0.1
2017-Sep-11 10:30N 32°38' W 091°09'2 3.4
2017-Sep-11 10:00N 32°37' W 091°09'2 4.0
2017-Sep-11 09:30N 32°35' W 091°07'2 3.8
2017-Sep-11 09:00N 32°33' W 091°06'2 3.6
2017-Sep-11 08:30N 32°32' W 091°06'2 4.1
2017-Sep-11 08:00N 32°30' W 091°07'2 4.0
2017-Sep-11 07:30N 32°28' W 091°06'2 4.0
2017-Sep-11 07:00N 32°27' W 091°04'2 4.1
2017-Sep-11 06:30N 32°26' W 091°02'2 4.3
2017-Sep-11 06:00N 32°25' W 090°60'2 3.6
2017-Sep-11 05:30N 32°23' W 090°60'2 3.3
2017-Sep-11 05:00N 32°21' W 091°00'2 4.6
2017-Sep-11 04:30N 32°21' W 090°57'2 4.2
2017-Sep-11 04:00N 32°21' W 090°55'2 3.9
2017-Sep-11 03:30N 32°19' W 090°54'1 2.3
2017-Sep-11 03:00N 32°18' W 090°55'0 0.5
2017-Sep-11 02:30N 32°18' W 090°56'1 2.7
2017-Sep-11 02:00N 32°17' W 090°57'2 4.4
2017-Sep-11 01:30N 32°15' W 090°59'2 3.5
2017-Sep-11 01:00N 32°13' W 090°59'2 4.7
2017-Sep-11 00:30N 32°11' W 090°60'2 4.5
2017-Sep-11 00:00N 32°09' W 091°00'3 3.8
2017-Sep-10 23:19N 32°07' W 091°03'3 4.7
2017-Sep-10 22:41N 32°08' W 091°06'1 4.7
2017-Sep-10 22:30N 32°07' W 091°07'5 1.9
2017-Sep-10 20:00N 32°03' W 091°03'  
2017-Sep-07 10:10N 31°41' W 091°24'1 7.3
2017-Sep-07 10:00N 31°42' W 091°24'5 7.8
2017-Sep-07 09:21N 31°47' W 091°22'13 6.6
2017-Sep-07 07:21N 31°57' W 091°11'3 6.7
2017-Sep-07 06:52N 31°59' W 091°08'3 7.3
2017-Sep-07 06:30N 31°60' W 091°05'4 7.6
2017-Sep-07 05:59N 32°03' W 091°03'4 8.2
2017-Sep-07 05:30N 32°07' W 091°06'1 2.7
2017-Sep-07 05:00N 32°08' W 091°06'3 6.6
2017-Sep-07 04:30N 32°07' W 091°02'3 6.9
2017-Sep-07 04:00N 32°10' W 091°00'4 7.8
2017-Sep-07 03:30N 32°14' W 090°59'4 7.4
2017-Sep-07 03:00N 32°17' W 090°57'4 7.4
2017-Sep-07 02:30N 32°20' W 090°54'3 6.7
2017-Sep-07 02:00N 32°21' W 090°58'3 5.4
2017-Sep-07 01:30N 32°23' W 090°60'3 6.4
2017-Sep-07 01:00N 32°26' W 091°02'4 7.5
2017-Sep-07 00:30N 32°27' W 091°06'6 7.1
2017-Sep-06 23:42N 32°33' W 091°06'1 7.6
2017-Sep-06 23:30N 32°34' W 091°07'6 6.3
2017-Sep-06 22:35N 32°40' W 091°07'  

Dump ship's entire track history